createdAt,value
2019-02-27T00:01:42.184Z,17.47
2019-02-27T00:06:34.445Z,13.90
2019-02-27T00:11:27.100Z,16.43
2019-02-27T00:16:19.585Z,14.77
2019-02-27T00:21:12.346Z,31.47
2019-02-27T00:26:08.741Z,20.87
2019-02-27T00:30:58.808Z,25.43
2019-02-27T00:35:51.409Z,17.57
2019-02-27T00:40:44.129Z,17.50
2019-02-27T00:45:39.663Z,42.27
2019-02-27T00:50:30.474Z,22.87
2019-02-27T00:55:23.082Z,19.30
2019-02-27T01:00:18.869Z,19.83
2019-02-27T01:05:11.670Z,17.27
2019-02-27T01:10:05.681Z,15.10
2019-02-27T01:14:58.393Z,12.80
2019-02-27T01:19:51.077Z,22.10
2019-02-27T01:24:45.104Z,23.17
2019-02-27T01:29:37.530Z,13.33
2019-02-27T01:34:30.385Z,17.87
2019-02-27T01:39:23.152Z,22.43
2019-02-27T01:44:15.715Z,14.13
2019-02-27T01:49:08.020Z,11.63
2019-02-27T01:54:00.653Z,15.43
2019-02-27T01:58:53.165Z,12.63
2019-02-27T02:03:47.487Z,9.27
2019-02-27T02:08:40.117Z,9.37
2019-02-27T02:13:35.812Z,11.13
2019-02-27T02:18:49.220Z,13.87
2019-02-27T02:23:59.574Z,11.27
2019-02-27T02:29:11.581Z,9.33
2019-02-27T02:34:26.914Z,9.93
2019-02-27T02:39:28.458Z,11.00
2019-02-27T02:44:26.463Z,12.20
2019-02-27T02:49:21.981Z,9.83
2019-02-27T02:54:26.294Z,8.83
2019-02-27T02:59:50.206Z,10.03
2019-02-27T03:05:00.895Z,18.07
2019-02-27T03:10:13.245Z,10.20
2019-02-27T03:15:28.832Z,11.23
2019-02-27T03:20:40.883Z,11.40
2019-02-27T03:26:09.350Z,13.13
2019-02-27T03:31:18.496Z,11.90
2019-02-27T03:36:19.194Z,14.83
2019-02-27T03:41:22.791Z,12.53
2019-02-27T03:46:17.253Z,14.00
2019-02-27T03:51:24.314Z,16.70
2019-02-27T03:56:33.418Z,13.90
2019-02-27T04:01:46.685Z,10.90
2019-02-27T04:06:56.275Z,10.83
2019-02-27T04:11:48.180Z,11.00
2019-02-27T04:16:40.884Z,13.67
2019-02-27T04:21:33.652Z,11.93
2019-02-27T04:26:26.128Z,11.07
2019-02-27T04:31:18.559Z,11.90
2019-02-27T04:36:12.706Z,12.23
2019-02-27T04:41:05.700Z,10.80
2019-02-27T04:45:57.977Z,10.77
2019-02-27T04:50:50.358Z,11.23
2019-02-27T04:55:43.154Z,11.23
2019-02-27T05:00:35.476Z,10.40
2019-02-27T05:05:28.173Z,10.87
2019-02-27T05:10:20.549Z,10.97
2019-02-27T05:15:14.720Z,11.30
2019-02-27T05:20:11.468Z,10.67
2019-02-27T05:25:02.520Z,11.13
2019-02-27T05:29:54.912Z,11.73
2019-02-27T05:34:49.741Z,12.43
2019-02-27T05:39:41.843Z,11.93
2019-02-27T05:44:34.470Z,12.17
2019-02-27T05:49:27.499Z,12.60
2019-02-27T05:54:20.088Z,13.23
2019-02-27T05:59:12.585Z,16.70
2019-02-27T06:04:05.060Z,10.70
2019-02-27T06:08:57.850Z,10.40
2019-02-27T06:13:50.359Z,10.60
2019-02-27T06:18:42.600Z,10.27
2019-02-27T06:23:35.395Z,9.73
2019-02-27T06:28:29.745Z,13.20
2019-02-27T06:33:22.488Z,12.50
2019-02-27T06:38:15.184Z,10.10
2019-02-27T06:43:07.853Z,11.23
2019-02-27T06:48:00.561Z,10.47
2019-02-27T06:52:53.167Z,15.53
2019-02-27T06:57:45.504Z,30.90
2019-02-27T07:02:37.889Z,44.20
2019-02-27T07:07:31.306Z,16.17
2019-02-27T07:12:24.786Z,23.37
2019-02-27T07:17:17.392Z,20.97
2019-02-27T07:22:12.518Z,17.47
2019-02-27T07:27:04.000Z,12.20
2019-02-27T07:31:57.249Z,10.63
2019-02-27T07:36:49.582Z,11.40
2019-02-27T07:41:42.067Z,11.40
2019-02-27T07:46:35.557Z,13.85
2019-02-27T07:51:28.174Z,19.55
2019-02-27T07:56:20.636Z,14.23
2019-02-27T08:01:13.241Z,14.58
2019-02-27T08:06:05.753Z,15.08
2019-02-27T08:10:58.382Z,13.13
2019-02-27T08:15:50.934Z,13.78
2019-02-27T08:20:43.603Z,18.17
2019-02-27T08:25:36.288Z,12.98
2019-02-27T08:30:29.609Z,12.63
2019-02-27T08:35:22.393Z,14.03
2019-02-27T08:40:15.512Z,11.73
2019-02-27T08:45:19.320Z,11.57
2019-02-27T08:50:11.405Z,14.68
2019-02-27T08:55:05.721Z,12.47
2019-02-27T08:59:58.573Z,14.43
2019-02-27T09:04:50.869Z,15.05
2019-02-27T09:09:43.157Z,30.70
2019-02-27T09:14:35.749Z,17.62
2019-02-27T09:19:28.482Z,15.23
2019-02-27T09:24:21.125Z,14.10
2019-02-27T09:29:18.408Z,14.63
2019-02-27T09:34:08.043Z,14.63
2019-02-27T09:39:00.540Z,16.20
2019-02-27T09:43:52.846Z,14.63
2019-02-27T09:48:45.413Z,14.90
2019-02-27T09:53:37.702Z,13.18
2019-02-27T09:58:30.178Z,13.78
2019-02-27T10:03:22.818Z,13.75
2019-02-27T10:08:15.742Z,14.10
2019-02-27T10:13:08.478Z,14.13
2019-02-27T10:18:00.866Z,14.85
2019-02-27T10:22:53.968Z,12.93
2019-02-27T10:27:47.385Z,13.88
2019-02-27T10:32:40.211Z,17.70
2019-02-27T10:37:32.950Z,13.75
2019-02-27T10:42:25.365Z,14.13
2019-02-27T10:47:17.864Z,11.83
2019-02-27T10:52:10.835Z,12.88
2019-02-27T10:57:03.296Z,11.38
2019-02-27T11:01:55.644Z,9.95
2019-02-27T11:06:47.984Z,10.48
2019-02-27T11:11:40.385Z,9.25
2019-02-27T11:16:32.827Z,9.23
2019-02-27T11:21:25.274Z,7.97
2019-02-27T11:26:17.781Z,9.08
2019-02-27T11:31:11.053Z,8.45
2019-02-27T11:36:05.659Z,8.08
2019-02-27T11:40:58.009Z,8.05
2019-02-27T11:45:50.660Z,6.72
2019-02-27T11:50:43.048Z,7.40
2019-02-27T11:55:35.308Z,6.65
2019-02-27T12:00:29.382Z,5.30
2019-02-27T12:05:22.332Z,5.20
2019-02-27T12:10:20.225Z,5.95
2019-02-27T12:15:15.473Z,5.05
2019-02-27T12:20:09.737Z,4.65
2019-02-27T12:25:02.336Z,4.37
2019-02-27T12:29:54.697Z,4.30
2019-02-27T12:34:47.465Z,4.40
2019-02-27T12:39:39.901Z,4.58
2019-02-27T12:44:34.485Z,4.70
2019-02-27T12:49:26.744Z,4.12
2019-02-27T12:54:19.281Z,3.70
2019-02-27T12:59:11.979Z,6.55
2019-02-27T13:04:04.646Z,5.35
2019-02-27T13:08:57.290Z,7.95
2019-02-27T13:14:09.681Z,5.20
2019-02-27T13:19:06.358Z,3.90
2019-02-27T13:23:56.598Z,4.00
2019-02-27T13:28:49.706Z,3.40
2019-02-27T13:33:42.312Z,2.50
2019-02-27T13:38:34.692Z,3.83
2019-02-27T13:43:27.734Z,3.40
2019-02-27T13:48:20.203Z,2.58
2019-02-27T13:53:12.997Z,2.65
2019-02-27T13:58:05.419Z,3.55
2019-02-27T14:02:58.240Z,2.70
2019-02-27T14:07:51.156Z,2.50
2019-02-27T14:12:43.788Z,2.70
2019-02-27T14:17:36.369Z,2.50
2019-02-27T14:22:28.729Z,2.20
2019-02-27T14:27:21.334Z,2.87
2019-02-27T14:32:14.662Z,2.47
2019-02-27T14:37:07.679Z,2.98
2019-02-27T14:42:00.092Z,2.20
2019-02-27T14:46:52.581Z,2.35
2019-02-27T14:51:45.055Z,3.72
2019-02-27T14:56:37.808Z,2.90
2019-02-27T15:01:30.283Z,2.65
2019-02-27T15:06:22.710Z,3.52
2019-02-27T15:11:15.237Z,2.22
2019-02-27T15:16:07.971Z,1.82
2019-02-27T15:21:00.220Z,3.85
2019-02-27T15:25:52.620Z,2.80
2019-02-27T15:30:46.622Z,2.47
2019-02-27T15:35:39.747Z,2.72
2019-02-27T15:40:32.161Z,2.22
2019-02-27T15:45:25.921Z,2.27
2019-02-27T15:50:29.354Z,1.95
2019-02-27T15:55:21.837Z,4.17
2019-02-27T16:00:20.344Z,3.90
2019-02-27T16:05:14.636Z,5.85
2019-02-27T16:10:13.470Z,26.60
2019-02-27T16:15:09.381Z,5.35
2019-02-27T16:20:01.737Z,4.30
2019-02-27T16:24:54.481Z,6.05
2019-02-27T16:29:47.001Z,34.80
2019-02-27T16:34:39.350Z,45.90
2019-02-27T16:39:32.338Z,51.30
2019-02-27T16:44:25.052Z,52.85
2019-02-27T16:49:17.723Z,34.20
2019-02-27T16:54:10.406Z,30.62
2019-02-27T16:59:07.690Z,33.50
2019-02-27T17:04:00.322Z,26.42
2019-02-27T17:08:50.702Z,33.20
2019-02-27T17:13:43.524Z,34.73
2019-02-27T17:18:36.050Z,40.23
2019-02-27T17:23:28.925Z,31.57
2019-02-27T17:28:21.539Z,18.52
2019-02-27T17:33:15.779Z,10.68
2019-02-27T17:38:10.909Z,8.68
2019-02-27T17:43:02.625Z,8.28
2019-02-27T17:47:55.026Z,9.78
2019-02-27T17:52:49.098Z,13.40
2019-02-27T17:57:42.213Z,26.62
2019-02-27T18:02:34.820Z,26.50
2019-02-27T18:07:34.240Z,21.48
2019-02-27T18:12:21.657Z,22.48
2019-02-27T18:17:14.291Z,33.48
2019-02-27T18:22:07.048Z,31.12
2019-02-27T18:26:59.673Z,24.92
2019-02-27T18:31:52.030Z,21.57
2019-02-27T18:36:46.496Z,24.85
2019-02-27T18:41:39.757Z,15.68
2019-02-27T18:46:32.210Z,12.10
2019-02-27T18:51:24.736Z,12.23
2019-02-27T18:56:17.426Z,22.10
2019-02-27T19:01:10.726Z,16.05
2019-02-27T19:06:03.179Z,14.80
2019-02-27T19:10:55.769Z,11.97
2019-02-27T19:15:48.481Z,11.80
2019-02-27T19:20:44.930Z,12.67
2019-02-27T19:25:37.348Z,23.53
2019-02-27T19:30:30.889Z,19.87
2019-02-27T19:35:23.713Z,19.57
2019-02-27T19:40:20.749Z,23.37
2019-02-27T19:45:13.305Z,23.43
2019-02-27T19:50:11.213Z,16.97
2019-02-27T19:55:02.565Z,16.97
2019-02-27T19:59:58.700Z,16.10
2019-02-27T20:04:48.835Z,20.73
2019-02-27T20:09:41.198Z,19.17
2019-02-27T20:14:36.808Z,18.27
2019-02-27T20:19:29.051Z,18.53
2019-02-27T20:24:22.061Z,15.27
2019-02-27T20:29:14.871Z,18.97
2019-02-27T20:34:10.729Z,36.93
2019-02-27T20:39:03.307Z,23.60
2019-02-27T20:43:55.505Z,20.57
2019-02-27T20:48:47.995Z,19.30
2019-02-27T20:53:40.675Z,17.57
2019-02-27T20:58:33.161Z,23.70
2019-02-27T21:03:27.199Z,13.40
2019-02-27T21:08:20.208Z,14.27
2019-02-27T21:13:16.022Z,14.17
2019-02-27T21:18:07.060Z,14.63
2019-02-27T21:23:00.259Z,26.83
2019-02-27T21:27:53.830Z,17.77
2019-02-27T21:32:46.365Z,26.80
2019-02-27T21:37:44.600Z,19.73
2019-02-27T21:42:32.974Z,13.90
2019-02-27T21:47:25.612Z,10.70
2019-02-27T21:52:21.604Z,9.90
2019-02-27T21:57:11.988Z,7.50
2019-02-27T22:02:04.681Z,6.63
2019-02-27T22:06:58.476Z,7.73
2019-02-27T22:11:51.345Z,11.53
2019-02-27T22:16:43.987Z,13.30
2019-02-27T22:21:36.593Z,12.17
2019-02-27T22:26:29.238Z,12.20
2019-02-27T22:31:21.842Z,14.77
2019-02-27T22:36:14.390Z,14.03
2019-02-27T22:41:09.547Z,16.83
2019-02-27T22:46:00.789Z,10.10
2019-02-27T22:50:53.207Z,11.80
2019-02-27T22:55:46.177Z,16.57
2019-02-27T23:00:56.358Z,18.33
2019-02-27T23:05:48.529Z,10.33
2019-02-27T23:10:41.165Z,10.10
2019-02-27T23:15:33.724Z,7.77
2019-02-27T23:20:26.218Z,12.70
2019-02-27T23:25:18.772Z,20.90
2019-02-27T23:30:15.954Z,9.87
2019-02-27T23:35:06.512Z,12.70
2019-02-27T23:39:58.685Z,17.13
2019-02-27T23:44:51.254Z,11.10
2019-02-27T23:49:43.780Z,8.67
2019-02-27T23:54:36.632Z,8.57
2019-02-27T23:59:28.912Z,13.53
